sensor_id;sensor_type;location;lat;lon;timestamp;temperature;humidity
32502;DHT22;18952;52.516;13.460;2022-12-18T00:01:17;-4.60;99.90
32502;DHT22;18952;52.516;13.460;2022-12-18T00:03:44;-4.70;99.90
32502;DHT22;18952;52.516;13.460;2022-12-18T00:06:12;-4.80;99.90
32502;DHT22;18952;52.516;13.460;2022-12-18T00:08:40;-4.90;99.90
32502;DHT22;18952;52.516;13.460;2022-12-18T00:11:08;-4.90;99.90
32502;DHT22;18952;52.516;13.460;2022-12-18T00:13:37;-4.80;99.90
32502;DHT22;18952;52.516;13.460;2022-12-18T00:16:06;-5.00;99.90
32502;DHT22;18952;52.516;13.460;2022-12-18T00:18:33;-5.10;99.90
32502;DHT22;18952;52.516;13.460;2022-12-18T00:21:02;-5.20;99.90
32502;DHT22;18952;52.516;13.460;2022-12-18T00:23:30;-5.20;99.90
32502;DHT22;18952;52.516;13.460;2022-12-18T00:26:02;-5.20;99.90
32502;DHT22;18952;52.516;13.460;2022-12-18T00:28:30;-5.10;99.90
32502;DHT22;18952;52.516;13.460;2022-12-18T00:31:04;-5.10;99.90
32502;DHT22;18952;52.516;13.460;2022-12-18T00:33:31;-4.90;99.90
32502;DHT22;18952;52.516;13.460;2022-12-18T00:36:07;-4.90;99.90
32502;DHT22;18952;52.516;13.460;2022-12-18T00:38:34;-4.90;99.90
32502;DHT22;18952;52.516;13.460;2022-12-18T00:41:01;-4.90;99.90
32502;DHT22;18952;52.516;13.460;2022-12-18T00:43:28;-4.80;99.90
32502;DHT22;18952;52.516;13.460;2022-12-18T00:45:55;-4.80;99.90
32502;DHT22;18952;52.516;13.460;2022-12-18T00:48:22;-4.70;99.90
32502;DHT22;18952;52.516;13.460;2022-12-18T00:50:50;-4.70;99.90
32502;DHT22;18952;52.516;13.460;2022-12-18T00:53:17;-4.70;99.90
32502;DHT22;18952;52.516;13.460;2022-12-18T00:55:44;-4.70;99.90
32502;DHT22;18952;52.516;13.460;2022-12-18T00:58:12;-4.80;99.90
32502;DHT22;18952;52.516;13.460;2022-12-18T01:00:39;-4.80;99.90
32502;DHT22;18952;52.516;13.460;2022-12-18T01:03:06;-5.00;99.90
32502;DHT22;18952;52.516;13.460;2022-12-18T01:05:33;-5.00;99.90
32502;DHT22;18952;52.516;13.460;2022-12-18T01:08:00;-5.00;99.90
32502;DHT22;18952;52.516;13.460;2022-12-18T01:10:27;-5.10;99.90
32502;DHT22;18952;52.516;13.460;2022-12-18T01:12:53;-5.10;99.90
32502;DHT22;18952;52.516;13.460;2022-12-18T01:15:20;-5.00;99.90
32502;DHT22;18952;52.516;13.460;2022-12-18T01:17:47;-5.00;99.90
32502;DHT22;18952;52.516;13.460;2022-12-18T01:20:14;-5.00;99.90
32502;DHT22;18952;52.516;13.460;2022-12-18T01:22:40;-5.10;99.90
32502;DHT22;18952;52.516;13.460;2022-12-18T01:25:07;-5.00;99.90
32502;DHT22;18952;52.516;13.460;2022-12-18T01:27:34;-5.00;99.90
32502;DHT22;18952;52.516;13.460;2022-12-18T01:30:01;-5.00;99.90
32502;DHT22;18952;52.516;13.460;2022-12-18T01:32:30;-5.10;99.90
32502;DHT22;18952;52.516;13.460;2022-12-18T01:34:57;-5.00;99.90
32502;DHT22;18952;52.516;13.460;2022-12-18T01:37:24;-5.10;99.90
32502;DHT22;18952;52.516;13.460;2022-12-18T01:39:52;-5.00;99.90
32502;DHT22;18952;52.516;13.460;2022-12-18T01:42:19;-5.10;99.90
32502;DHT22;18952;52.516;13.460;2022-12-18T01:47:20;-5.10;99.90
32502;DHT22;18952;52.516;13.460;2022-12-18T01:49:48;-5.10;99.90
32502;DHT22;18952;52.516;13.460;2022-12-18T01:52:15;-5.00;99.90
32502;DHT22;18952;52.516;13.460;2022-12-18T01:54:44;-5.00;99.90
32502;DHT22;18952;52.516;13.460;2022-12-18T01:57:11;-5.00;99.90
32502;DHT22;18952;52.516;13.460;2022-12-18T01:59:39;-5.00;99.90
32502;DHT22;18952;52.516;13.460;2022-12-18T02:02:07;-5.00;99.90
32502;DHT22;18952;52.516;13.460;2022-12-18T02:04:35;-5.10;99.90
32502;DHT22;18952;52.516;13.460;2022-12-18T02:07:11;-5.30;99.90
32502;DHT22;18952;52.516;13.460;2022-12-18T02:09:48;-5.40;99.90
32502;DHT22;18952;52.516;13.460;2022-12-18T02:12:20;-5.40;99.90
32502;DHT22;18952;52.516;13.460;2022-12-18T02:15:15;-5.40;99.90
32502;DHT22;18952;52.516;13.460;2022-12-18T02:17:54;-5.60;99.90
32502;DHT22;18952;52.516;13.460;2022-12-18T02:20:33;-5.60;99.90
32502;DHT22;18952;52.516;13.460;2022-12-18T02:25:52;-5.70;99.90
32502;DHT22;18952;52.516;13.460;2022-12-18T02:28:23;-5.60;99.90
32502;DHT22;18952;52.516;13.460;2022-12-18T02:30:53;-5.70;99.90
32502;DHT22;18952;52.516;13.460;2022-12-18T02:33:27;-5.70;99.90
32502;DHT22;18952;52.516;13.460;2022-12-18T02:35:57;-5.50;99.90
32502;DHT22;18952;52.516;13.460;2022-12-18T02:38:25;-5.40;99.90
32502;DHT22;18952;52.516;13.460;2022-12-18T02:40:53;-5.40;99.90
32502;DHT22;18952;52.516;13.460;2022-12-18T02:43:20;-5.50;99.90
32502;DHT22;18952;52.516;13.460;2022-12-18T02:45:58;-5.60;99.90
32502;DHT22;18952;52.516;13.460;2022-12-18T02:48:29;-5.60;99.90
32502;DHT22;18952;52.516;13.460;2022-12-18T02:51:11;-5.70;99.90
32502;DHT22;18952;52.516;13.460;2022-12-18T02:53:48;-5.70;99.90
32502;DHT22;18952;52.516;13.460;2022-12-18T02:56:26;-5.70;99.90
32502;DHT22;18952;52.516;13.460;2022-12-18T02:58:59;-5.70;99.90
32502;DHT22;18952;52.516;13.460;2022-12-18T03:01:33;-5.70;99.90
32502;DHT22;18952;52.516;13.460;2022-12-18T03:04:04;-5.80;99.90
32502;DHT22;18952;52.516;13.460;2022-12-18T03:06:43;-5.70;99.90
32502;DHT22;18952;52.516;13.460;2022-12-18T03:09:17;-5.70;99.90
32502;DHT22;18952;52.516;13.460;2022-12-18T03:11:52;-5.50;99.90
32502;DHT22;18952;52.516;13.460;2022-12-18T03:14:22;-5.50;99.90
32502;DHT22;18952;52.516;13.460;2022-12-18T03:16:52;-5.50;99.90
32502;DHT22;18952;52.516;13.460;2022-12-18T03:19:23;-5.50;99.90
32502;DHT22;18952;52.516;13.460;2022-12-18T03:21:55;-5.40;99.90
32502;DHT22;18952;52.516;13.460;2022-12-18T03:24:23;-5.40;99.90
32502;DHT22;18952;52.516;13.460;2022-12-18T03:26:56;-5.30;99.90
32502;DHT22;18952;52.516;13.460;2022-12-18T03:29:48;-5.40;99.90
32502;DHT22;18952;52.516;13.460;2022-12-18T03:32:25;-5.30;99.90
32502;DHT22;18952;52.516;13.460;2022-12-18T03:34:58;-5.30;99.90
32502;DHT22;18952;52.516;13.460;2022-12-18T03:37:27;-5.20;99.90
32502;DHT22;18952;52.516;13.460;2022-12-18T03:39:53;-5.30;99.90
32502;DHT22;18952;52.516;13.460;2022-12-18T03:42:23;-5.40;99.90
32502;DHT22;18952;52.516;13.460;2022-12-18T03:47:31;-5.30;99.90
32502;DHT22;18952;52.516;13.460;2022-12-18T03:52:43;-5.40;99.90
32502;DHT22;18952;52.516;13.460;2022-12-18T03:55:12;-5.30;99.90
32502;DHT22;18952;52.516;13.460;2022-12-18T03:57:41;-5.30;99.90
32502;DHT22;18952;52.516;13.460;2022-12-18T04:00:14;-5.30;99.90
32502;DHT22;18952;52.516;13.460;2022-12-18T04:02:51;-5.40;99.90
32502;DHT22;18952;52.516;13.460;2022-12-18T04:05:20;-5.50;99.90
32502;DHT22;18952;52.516;13.460;2022-12-18T04:07:47;-5.60;99.90
32502;DHT22;18952;52.516;13.460;2022-12-18T04:10:16;-5.60;99.90
32502;DHT22;18952;52.516;13.460;2022-12-18T04:12:43;-5.60;99.90
32502;DHT22;18952;52.516;13.460;2022-12-18T04:15:11;-5.60;99.90
32502;DHT22;18952;52.516;13.460;2022-12-18T04:17:39;-5.60;99.90
32502;DHT22;18952;52.516;13.460;2022-12-18T04:20:09;-5.60;99.90
32502;DHT22;18952;52.516;13.460;2022-12-18T04:22:36;-5.60;99.90
32502;DHT22;18952;52.516;13.460;2022-12-18T04:25:03;-5.50;99.90
32502;DHT22;18952;52.516;13.460;2022-12-18T04:27:30;-5.60;99.90
32502;DHT22;18952;52.516;13.460;2022-12-18T04:29:57;-5.60;99.90
32502;DHT22;18952;52.516;13.460;2022-12-18T04:32:24;-5.60;99.90
32502;DHT22;18952;52.516;13.460;2022-12-18T04:34:50;-5.60;99.90
32502;DHT22;18952;52.516;13.460;2022-12-18T04:37:17;-5.60;99.90
32502;DHT22;18952;52.516;13.460;2022-12-18T04:39:44;-5.60;99.90
32502;DHT22;18952;52.516;13.460;2022-12-18T04:42:11;-5.60;99.90
32502;DHT22;18952;52.516;13.460;2022-12-18T04:44:37;-5.60;99.90
32502;DHT22;18952;52.516;13.460;2022-12-18T04:47:04;-5.60;99.90
32502;DHT22;18952;52.516;13.460;2022-12-18T04:49:31;-5.60;99.90
32502;DHT22;18952;52.516;13.460;2022-12-18T04:51:57;-5.70;99.90
32502;DHT22;18952;52.516;13.460;2022-12-18T04:54:24;-5.70;99.90
32502;DHT22;18952;52.516;13.460;2022-12-18T04:56:51;-5.60;99.90
32502;DHT22;18952;52.516;13.460;2022-12-18T04:59:18;-5.70;99.90
32502;DHT22;18952;52.516;13.460;2022-12-18T05:01:44;-5.70;99.90
32502;DHT22;18952;52.516;13.460;2022-12-18T05:04:11;-5.70;99.90
32502;DHT22;18952;52.516;13.460;2022-12-18T05:06:38;-5.60;99.90
32502;DHT22;18952;52.516;13.460;2022-12-18T05:09:04;-5.60;99.90
32502;DHT22;18952;52.516;13.460;2022-12-18T05:11:31;-5.60;99.90
32502;DHT22;18952;52.516;13.460;2022-12-18T05:13:58;-5.60;99.90
32502;DHT22;18952;52.516;13.460;2022-12-18T05:16:25;-5.60;99.90
32502;DHT22;18952;52.516;13.460;2022-12-18T05:18:51;-5.70;99.90
32502;DHT22;18952;52.516;13.460;2022-12-18T05:21:18;-5.80;99.90
32502;DHT22;18952;52.516;13.460;2022-12-18T05:23:45;-5.80;99.90
32502;DHT22;18952;52.516;13.460;2022-12-18T05:26:16;-5.90;99.90
32502;DHT22;18952;52.516;13.460;2022-12-18T05:28:43;-5.90;99.90
32502;DHT22;18952;52.516;13.460;2022-12-18T05:31:10;-5.80;99.90
32502;DHT22;18952;52.516;13.460;2022-12-18T05:33:37;-5.80;99.90
32502;DHT22;18952;52.516;13.460;2022-12-18T05:36:06;-5.80;99.90
32502;DHT22;18952;52.516;13.460;2022-12-18T05:38:35;-5.70;99.90
32502;DHT22;18952;52.516;13.460;2022-12-18T05:41:06;-5.70;99.90
32502;DHT22;18952;52.516;13.460;2022-12-18T05:43:35;-5.70;99.90
32502;DHT22;18952;52.516;13.460;2022-12-18T05:46:04;-5.70;99.90
32502;DHT22;18952;52.516;13.460;2022-12-18T05:48:32;-5.60;99.90
32502;DHT22;18952;52.516;13.460;2022-12-18T05:51:08;-5.70;99.90
32502;DHT22;18952;52.516;13.460;2022-12-18T05:53:35;-5.60;99.90
32502;DHT22;18952;52.516;13.460;2022-12-18T05:56:04;-5.60;99.90
32502;DHT22;18952;52.516;13.460;2022-12-18T05:58:32;-5.60;99.90
32502;DHT22;18952;52.516;13.460;2022-12-18T06:01:16;-5.50;99.90
32502;DHT22;18952;52.516;13.460;2022-12-18T06:03:44;-5.50;99.90
32502;DHT22;18952;52.516;13.460;2022-12-18T06:06:23;-5.50;99.90
32502;DHT22;18952;52.516;13.460;2022-12-18T06:08:50;-5.50;99.90
32502;DHT22;18952;52.516;13.460;2022-12-18T06:11:19;-5.60;99.90
32502;DHT22;18952;52.516;13.460;2022-12-18T06:13:50;-5.60;99.90
32502;DHT22;18952;52.516;13.460;2022-12-18T06:16:23;-5.60;99.90
32502;DHT22;18952;52.516;13.460;2022-12-18T06:18:50;-5.60;99.90
32502;DHT22;18952;52.516;13.460;2022-12-18T06:21:17;-5.50;99.90
32502;DHT22;18952;52.516;13.460;2022-12-18T06:23:44;-5.40;99.90
32502;DHT22;18952;52.516;13.460;2022-12-18T06:26:12;-5.40;99.90
32502;DHT22;18952;52.516;13.460;2022-12-18T06:28:39;-5.40;99.90
32502;DHT22;18952;52.516;13.460;2022-12-18T06:31:06;-5.40;99.90
32502;DHT22;18952;52.516;13.460;2022-12-18T06:33:34;-5.40;99.90
32502;DHT22;18952;52.516;13.460;2022-12-18T06:36:11;-5.40;99.90
32502;DHT22;18952;52.516;13.460;2022-12-18T06:38:40;-5.40;99.90
32502;DHT22;18952;52.516;13.460;2022-12-18T06:41:09;-5.30;99.90
32502;DHT22;18952;52.516;13.460;2022-12-18T06:43:36;-5.30;99.90
32502;DHT22;18952;52.516;13.460;2022-12-18T06:46:05;-5.30;99.90
32502;DHT22;18952;52.516;13.460;2022-12-18T06:48:32;-5.30;99.90
32502;DHT22;18952;52.516;13.460;2022-12-18T06:50:59;-5.30;99.90
32502;DHT22;18952;52.516;13.460;2022-12-18T06:53:26;-5.30;99.90
32502;DHT22;18952;52.516;13.460;2022-12-18T06:56:00;-5.30;99.90
32502;DHT22;18952;52.516;13.460;2022-12-18T06:58:34;-5.40;99.90
32502;DHT22;18952;52.516;13.460;2022-12-18T07:01:04;-5.40;99.90
32502;DHT22;18952;52.516;13.460;2022-12-18T07:03:31;-5.40;99.90
32502;DHT22;18952;52.516;13.460;2022-12-18T07:05:58;-5.50;99.90
32502;DHT22;18952;52.516;13.460;2022-12-18T07:08:25;-5.40;99.90
32502;DHT22;18952;52.516;13.460;2022-12-18T07:10:52;-5.40;99.90
32502;DHT22;18952;52.516;13.460;2022-12-18T07:13:22;-5.40;99.90
32502;DHT22;18952;52.516;13.460;2022-12-18T07:15:49;-5.40;99.90
32502;DHT22;18952;52.516;13.460;2022-12-18T07:18:16;-5.40;99.90
32502;DHT22;18952;52.516;13.460;2022-12-18T07:20:42;-5.40;99.90
32502;DHT22;18952;52.516;13.460;2022-12-18T07:23:09;-5.50;99.90
32502;DHT22;18952;52.516;13.460;2022-12-18T07:25:37;-5.60;99.90
32502;DHT22;18952;52.516;13.460;2022-12-18T07:28:04;-5.60;99.90
32502;DHT22;18952;52.516;13.460;2022-12-18T07:30:31;-5.50;99.90
32502;DHT22;18952;52.516;13.460;2022-12-18T07:32:58;-5.40;99.90
32502;DHT22;18952;52.516;13.460;2022-12-18T07:35:24;-5.40;99.90
32502;DHT22;18952;52.516;13.460;2022-12-18T07:37:51;-5.40;99.90
32502;DHT22;18952;52.516;13.460;2022-12-18T07:40:18;-5.30;99.90
32502;DHT22;18952;52.516;13.460;2022-12-18T07:42:44;-5.30;99.90
32502;DHT22;18952;52.516;13.460;2022-12-18T07:45:11;-5.30;99.90
32502;DHT22;18952;52.516;13.460;2022-12-18T07:47:38;-5.20;99.90
32502;DHT22;18952;52.516;13.460;2022-12-18T07:50:05;-5.30;99.90
32502;DHT22;18952;52.516;13.460;2022-12-18T07:52:32;-5.30;99.90
32502;DHT22;18952;52.516;13.460;2022-12-18T07:54:59;-5.30;99.90
32502;DHT22;18952;52.516;13.460;2022-12-18T07:57:26;-5.30;99.90
32502;DHT22;18952;52.516;13.460;2022-12-18T08:00:13;-5.20;99.90
32502;DHT22;18952;52.516;13.460;2022-12-18T08:02:40;-5.30;99.90
32502;DHT22;18952;52.516;13.460;2022-12-18T08:05:08;-5.30;99.90
32502;DHT22;18952;52.516;13.460;2022-12-18T08:07:35;-5.30;99.90
32502;DHT22;18952;52.516;13.460;2022-12-18T08:10:01;-5.20;99.90
32502;DHT22;18952;52.516;13.460;2022-12-18T08:12:29;-5.20;99.90
32502;DHT22;18952;52.516;13.460;2022-12-18T08:14:56;-5.20;99.90
32502;DHT22;18952;52.516;13.460;2022-12-18T08:17:23;-5.10;99.90
32502;DHT22;18952;52.516;13.460;2022-12-18T08:19:49;-5.00;99.90
32502;DHT22;18952;52.516;13.460;2022-12-18T08:22:16;-5.10;99.90
32502;DHT22;18952;52.516;13.460;2022-12-18T08:24:43;-5.00;99.90
32502;DHT22;18952;52.516;13.460;2022-12-18T08:27:09;-5.00;99.90
32502;DHT22;18952;52.516;13.460;2022-12-18T08:29:54;-4.90;99.90
32502;DHT22;18952;52.516;13.460;2022-12-18T08:32:21;-5.00;99.90
32502;DHT22;18952;52.516;13.460;2022-12-18T08:34:48;-4.90;99.90
32502;DHT22;18952;52.516;13.460;2022-12-18T08:37:15;-5.00;99.90
32502;DHT22;18952;52.516;13.460;2022-12-18T08:39:41;-5.00;99.90
32502;DHT22;18952;52.516;13.460;2022-12-18T08:42:08;-5.00;99.90
32502;DHT22;18952;52.516;13.460;2022-12-18T08:44:36;-5.00;99.90
32502;DHT22;18952;52.516;13.460;2022-12-18T08:47:03;-4.90;99.90
32502;DHT22;18952;52.516;13.460;2022-12-18T08:49:30;-4.90;99.90
32502;DHT22;18952;52.516;13.460;2022-12-18T08:51:57;-4.90;99.90
32502;DHT22;18952;52.516;13.460;2022-12-18T08:54:25;-4.90;99.90
32502;DHT22;18952;52.516;13.460;2022-12-18T08:56:51;-4.90;99.90
32502;DHT22;18952;52.516;13.460;2022-12-18T08:59:19;-4.90;99.90
32502;DHT22;18952;52.516;13.460;2022-12-18T09:01:47;-4.90;99.90
32502;DHT22;18952;52.516;13.460;2022-12-18T09:04:14;-4.80;99.90
32502;DHT22;18952;52.516;13.460;2022-12-18T09:06:41;-4.70;99.90
32502;DHT22;18952;52.516;13.460;2022-12-18T09:09:09;-4.60;99.90
32502;DHT22;18952;52.516;13.460;2022-12-18T09:11:36;-4.60;99.90
32502;DHT22;18952;52.516;13.460;2022-12-18T09:14:03;-4.60;99.90
32502;DHT22;18952;52.516;13.460;2022-12-18T09:16:31;-4.50;99.90
32502;DHT22;18952;52.516;13.460;2022-12-18T09:18:59;-4.50;99.90
32502;DHT22;18952;52.516;13.460;2022-12-18T09:21:29;-4.50;99.90
32502;DHT22;18952;52.516;13.460;2022-12-18T09:23:56;-4.50;99.90
32502;DHT22;18952;52.516;13.460;2022-12-18T09:26:24;-4.40;99.90
32502;DHT22;18952;52.516;13.460;2022-12-18T09:28:52;-4.30;99.90
32502;DHT22;18952;52.516;13.460;2022-12-18T09:31:21;-4.30;99.90
32502;DHT22;18952;52.516;13.460;2022-12-18T09:33:48;-4.30;99.90
32502;DHT22;18952;52.516;13.460;2022-12-18T09:36:17;-4.30;99.90
32502;DHT22;18952;52.516;13.460;2022-12-18T09:38:44;-4.30;99.90
32502;DHT22;18952;52.516;13.460;2022-12-18T09:41:20;-4.30;99.90
32502;DHT22;18952;52.516;13.460;2022-12-18T09:43:56;-4.20;99.90
32502;DHT22;18952;52.516;13.460;2022-12-18T09:46:30;-4.20;99.90
32502;DHT22;18952;52.516;13.460;2022-12-18T09:49:02;-4.20;99.90
32502;DHT22;18952;52.516;13.460;2022-12-18T09:51:33;-4.20;99.90
32502;DHT22;18952;52.516;13.460;2022-12-18T09:54:06;-4.20;99.90
32502;DHT22;18952;52.516;13.460;2022-12-18T09:56:38;-4.10;99.90
32502;DHT22;18952;52.516;13.460;2022-12-18T09:59:09;-4.10;99.90
32502;DHT22;18952;52.516;13.460;2022-12-18T10:01:41;-4.10;99.90
32502;DHT22;18952;52.516;13.460;2022-12-18T10:04:11;-4.00;99.90
32502;DHT22;18952;52.516;13.460;2022-12-18T10:06:58;-4.00;99.90
32502;DHT22;18952;52.516;13.460;2022-12-18T10:09:44;-3.90;99.90
32502;DHT22;18952;52.516;13.460;2022-12-18T10:12:18;-3.90;99.90
32502;DHT22;18952;52.516;13.460;2022-12-18T10:15:08;-3.80;99.90
32502;DHT22;18952;52.516;13.460;2022-12-18T10:17:49;-3.80;99.90
32502;DHT22;18952;52.516;13.460;2022-12-18T10:20:34;-3.70;99.90
32502;DHT22;18952;52.516;13.460;2022-12-18T10:23:28;-3.80;99.90
32502;DHT22;18952;52.516;13.460;2022-12-18T10:28:30;-3.80;99.90
32502;DHT22;18952;52.516;13.460;2022-12-18T10:30:58;-3.80;99.90
32502;DHT22;18952;52.516;13.460;2022-12-18T10:33:29;-3.70;99.90
32502;DHT22;18952;52.516;13.460;2022-12-18T10:35:56;-3.60;99.90
32502;DHT22;18952;52.516;13.460;2022-12-18T10:38:31;-3.60;99.90
32502;DHT22;18952;52.516;13.460;2022-12-18T10:41:24;-3.50;99.90
32502;DHT22;18952;52.516;13.460;2022-12-18T10:44:30;-3.50;99.90
32502;DHT22;18952;52.516;13.460;2022-12-18T10:47:04;-3.40;99.90
32502;DHT22;18952;52.516;13.460;2022-12-18T10:49:42;-3.40;99.90
32502;DHT22;18952;52.516;13.460;2022-12-18T10:52:18;-3.40;99.90
32502;DHT22;18952;52.516;13.460;2022-12-18T10:54:50;-3.40;99.90
32502;DHT22;18952;52.516;13.460;2022-12-18T10:57:30;-3.30;99.90
32502;DHT22;18952;52.516;13.460;2022-12-18T10:59:59;-3.30;99.90
32502;DHT22;18952;52.516;13.460;2022-12-18T11:02:34;-3.30;99.90
32502;DHT22;18952;52.516;13.460;2022-12-18T11:05:03;-3.30;99.90
32502;DHT22;18952;52.516;13.460;2022-12-18T11:07:48;-3.30;99.90
32502;DHT22;18952;52.516;13.460;2022-12-18T11:10:17;-3.20;99.90
32502;DHT22;18952;52.516;13.460;2022-12-18T11:12:45;-3.20;99.90
32502;DHT22;18952;52.516;13.460;2022-12-18T11:15:21;-3.10;99.90
32502;DHT22;18952;52.516;13.460;2022-12-18T11:17:50;-3.10;99.90
32502;DHT22;18952;52.516;13.460;2022-12-18T11:20:31;-3.10;99.90
32502;DHT22;18952;52.516;13.460;2022-12-18T11:23:01;-3.00;99.90
32502;DHT22;18952;52.516;13.460;2022-12-18T11:25:30;-3.00;99.90
32502;DHT22;18952;52.516;13.460;2022-12-18T11:28:02;-3.10;99.90
32502;DHT22;18952;52.516;13.460;2022-12-18T11:30:37;-3.10;99.90
32502;DHT22;18952;52.516;13.460;2022-12-18T11:35:52;-3.00;99.90
32502;DHT22;18952;52.516;13.460;2022-12-18T11:43:59;-3.20;99.90
32502;DHT22;18952;52.516;13.460;2022-12-18T11:46:27;-3.20;99.90
32502;DHT22;18952;52.516;13.460;2022-12-18T11:49:01;-3.30;99.90
32502;DHT22;18952;52.516;13.460;2022-12-18T11:51:58;-3.30;99.90
32502;DHT22;18952;52.516;13.460;2022-12-18T11:54:26;-3.30;99.90
32502;DHT22;18952;52.516;13.460;2022-12-18T11:56:55;-3.20;99.90
32502;DHT22;18952;52.516;13.460;2022-12-18T11:59:51;-3.20;99.90
32502;DHT22;18952;52.516;13.460;2022-12-18T12:02:24;-3.20;99.90
32502;DHT22;18952;52.516;13.460;2022-12-18T12:21:47;-3.10;99.90
32502;DHT22;18952;52.516;13.460;2022-12-18T12:26:52;-3.10;99.90
32502;DHT22;18952;52.516;13.460;2022-12-18T12:29:36;-3.10;99.90
32502;DHT22;18952;52.516;13.460;2022-12-18T12:40:16;-3.00;99.90
32502;DHT22;18952;52.516;13.460;2022-12-18T12:45:51;-3.00;99.90
32502;DHT22;18952;52.516;13.460;2022-12-18T12:48:49;-3.00;99.90
32502;DHT22;18952;52.516;13.460;2022-12-18T12:51:25;-3.00;99.90
32502;DHT22;18952;52.516;13.460;2022-12-18T12:53:54;-3.00;99.90
32502;DHT22;18952;52.516;13.460;2022-12-18T12:56:26;-3.00;99.90
32502;DHT22;18952;52.516;13.460;2022-12-18T13:02:28;-3.00;99.90
32502;DHT22;18952;52.516;13.460;2022-12-18T13:07:54;-2.90;99.90
32502;DHT22;18952;52.516;13.460;2022-12-18T13:13:13;-2.90;99.90
32502;DHT22;18952;52.516;13.460;2022-12-18T13:16:06;-2.90;99.90
32502;DHT22;18952;52.516;13.460;2022-12-18T13:18:34;-2.80;99.90
32502;DHT22;18952;52.516;13.460;2022-12-18T13:21:02;-2.90;99.90
32502;DHT22;18952;52.516;13.460;2022-12-18T13:31:13;-2.90;99.90
32502;DHT22;18952;52.516;13.460;2022-12-18T13:33:46;-2.90;99.90
32502;DHT22;18952;52.516;13.460;2022-12-18T13:36:34;-2.80;99.90
32502;DHT22;18952;52.516;13.460;2022-12-18T13:44:37;-2.90;99.90
32502;DHT22;18952;52.516;13.460;2022-12-18T13:47:31;-2.90;99.90
32502;DHT22;18952;52.516;13.460;2022-12-18T13:50:00;-2.90;99.90
32502;DHT22;18952;52.516;13.460;2022-12-18T13:52:35;-2.90;99.90
32502;DHT22;18952;52.516;13.460;2022-12-18T13:55:07;-2.90;99.90
32502;DHT22;18952;52.516;13.460;2022-12-18T13:57:38;-2.90;99.90
32502;DHT22;18952;52.516;13.460;2022-12-18T14:00:27;-2.90;99.90
32502;DHT22;18952;52.516;13.460;2022-12-18T14:02:55;-2.90;99.90
32502;DHT22;18952;52.516;13.460;2022-12-18T14:05:23;-2.90;99.90
32502;DHT22;18952;52.516;13.460;2022-12-18T14:07:50;-2.90;99.90
32502;DHT22;18952;52.516;13.460;2022-12-18T14:10:18;-2.90;99.90
32502;DHT22;18952;52.516;13.460;2022-12-18T14:13:08;-2.90;99.90
32502;DHT22;18952;52.516;13.460;2022-12-18T14:15:40;-3.00;99.90
32502;DHT22;18952;52.516;13.460;2022-12-18T14:20:47;-3.00;99.90
32502;DHT22;18952;52.516;13.460;2022-12-18T14:23:34;-3.00;99.90
32502;DHT22;18952;52.516;13.460;2022-12-18T14:26:03;-2.90;99.90
32502;DHT22;18952;52.516;13.460;2022-12-18T14:28:45;-2.90;99.90
32502;DHT22;18952;52.516;13.460;2022-12-18T14:31:23;-2.90;99.90
32502;DHT22;18952;52.516;13.460;2022-12-18T14:33:50;-3.00;99.90
32502;DHT22;18952;52.516;13.460;2022-12-18T14:36:20;-3.00;99.90
32502;DHT22;18952;52.516;13.460;2022-12-18T14:38:52;-3.00;99.90
32502;DHT22;18952;52.516;13.460;2022-12-18T14:41:20;-3.00;99.90
32502;DHT22;18952;52.516;13.460;2022-12-18T14:43:48;-3.10;99.90
32502;DHT22;18952;52.516;13.460;2022-12-18T14:46:35;-3.10;99.90
32502;DHT22;18952;52.516;13.460;2022-12-18T14:49:32;-3.10;99.90
32502;DHT22;18952;52.516;13.460;2022-12-18T14:52:03;-3.30;99.90
32502;DHT22;18952;52.516;13.460;2022-12-18T14:54:34;-3.50;99.90
32502;DHT22;18952;52.516;13.460;2022-12-18T15:00:17;-3.40;99.90
32502;DHT22;18952;52.516;13.460;2022-12-18T15:02:47;-3.40;99.90
32502;DHT22;18952;52.516;13.460;2022-12-18T15:05:27;-3.60;99.90
32502;DHT22;18952;52.516;13.460;2022-12-18T15:07:56;-3.60;99.90
32502;DHT22;18952;52.516;13.460;2022-12-18T15:15:50;-3.50;99.90
32502;DHT22;18952;52.516;13.460;2022-12-18T15:18:31;-3.40;99.90
32502;DHT22;18952;52.516;13.460;2022-12-18T15:21:10;-3.40;99.90
32502;DHT22;18952;52.516;13.460;2022-12-18T15:26:13;-3.40;99.90
32502;DHT22;18952;52.516;13.460;2022-12-18T15:28:49;-3.40;99.90
32502;DHT22;18952;52.516;13.460;2022-12-18T15:34:14;-3.40;99.90
32502;DHT22;18952;52.516;13.460;2022-12-18T15:36:44;-3.50;99.90
32502;DHT22;18952;52.516;13.460;2022-12-18T15:39:12;-3.60;99.90
32502;DHT22;18952;52.516;13.460;2022-12-18T15:41:39;-3.50;99.90
32502;DHT22;18952;52.516;13.460;2022-12-18T15:44:23;-3.50;99.90
32502;DHT22;18952;52.516;13.460;2022-12-18T15:46:50;-3.50;99.90
32502;DHT22;18952;52.516;13.460;2022-12-18T15:49:16;-3.50;99.90
32502;DHT22;18952;52.516;13.460;2022-12-18T15:51:43;-3.60;99.90
32502;DHT22;18952;52.516;13.460;2022-12-18T15:54:13;-3.50;99.90
32502;DHT22;18952;52.516;13.460;2022-12-18T15:56:41;-3.50;99.90
32502;DHT22;18952;52.516;13.460;2022-12-18T15:59:14;-3.50;99.90
32502;DHT22;18952;52.516;13.460;2022-12-18T16:01:44;-3.50;99.90
32502;DHT22;18952;52.516;13.460;2022-12-18T16:04:13;-3.50;99.90
32502;DHT22;18952;52.516;13.460;2022-12-18T16:06:40;-3.50;99.90
32502;DHT22;18952;52.516;13.460;2022-12-18T16:09:26;-3.50;99.90
32502;DHT22;18952;52.516;13.460;2022-12-18T16:11:53;-3.40;99.90
32502;DHT22;18952;52.516;13.460;2022-12-18T16:14:22;-3.50;99.90
32502;DHT22;18952;52.516;13.460;2022-12-18T16:16:53;-3.60;99.90
32502;DHT22;18952;52.516;13.460;2022-12-18T16:19:20;-3.60;99.90
32502;DHT22;18952;52.516;13.460;2022-12-18T16:21:48;-3.50;99.90
32502;DHT22;18952;52.516;13.460;2022-12-18T16:24:20;-3.60;99.90
32502;DHT22;18952;52.516;13.460;2022-12-18T16:26:48;-3.60;99.90
32502;DHT22;18952;52.516;13.460;2022-12-18T16:29:14;-3.60;99.90
32502;DHT22;18952;52.516;13.460;2022-12-18T16:31:41;-3.60;99.90
32502;DHT22;18952;52.516;13.460;2022-12-18T16:36:38;-3.70;99.90
32502;DHT22;18952;52.516;13.460;2022-12-18T16:39:04;-3.70;99.90
32502;DHT22;18952;52.516;13.460;2022-12-18T16:41:32;-3.70;99.90
32502;DHT22;18952;52.516;13.460;2022-12-18T16:43:59;-3.70;99.90
32502;DHT22;18952;52.516;13.460;2022-12-18T16:46:26;-3.70;99.90
32502;DHT22;18952;52.516;13.460;2022-12-18T16:48:53;-3.70;99.90
32502;DHT22;18952;52.516;13.460;2022-12-18T16:51:19;-3.70;99.90
32502;DHT22;18952;52.516;13.460;2022-12-18T16:53:46;-3.60;99.90
32502;DHT22;18952;52.516;13.460;2022-12-18T16:56:13;-3.60;99.90
32502;DHT22;18952;52.516;13.460;2022-12-18T16:58:40;-3.60;99.90
32502;DHT22;18952;52.516;13.460;2022-12-18T17:01:10;-3.60;99.90
32502;DHT22;18952;52.516;13.460;2022-12-18T17:03:37;-3.60;99.90
32502;DHT22;18952;52.516;13.460;2022-12-18T17:06:05;-3.60;99.90
32502;DHT22;18952;52.516;13.460;2022-12-18T17:08:32;-3.60;99.90
32502;DHT22;18952;52.516;13.460;2022-12-18T17:11:06;-3.70;99.90